Time;durP1;ratioP1;P1;durP2;ratioP2;P2;SDS_P1;SDS_P2;PMS_P1;PMS_P2;Temp;Humidity;BMP_temperature;BMP_pressure;BME280_temperature;BME280_humidity;BME280_pressure;Samples;Min_cycle;Max_cycle;Signal;HPM_P1;HPM_P2
2022/03/28 00:01:39;;;;;;;10.93;9.10;;;;;;;;;;5071232;28;20187;-57
2022/03/28 00:04:06;;;;;;;10.50;7.87;;;;;;;;;;5087423;28;20204;-55
2022/03/28 00:06:32;;;;;;;9.57;8.13;;;;;;;;;;5088122;28;20661;-56
2022/03/28 00:08:58;;;;;;;10.53;9.03;;;;;;;;;;5086506;28;20706;-56
2022/03/28 00:11:26;;;;;;;11.43;8.83;;;;;;;;;;5069204;28;20182;-55
2022/03/28 00:13:53;;;;;;;10.73;8.73;;;;;;;;;;5064382;28;20210;-56
2022/03/28 00:16:20;;;;;;;9.57;8.43;;;;;;;;;;5083420;28;20207;-56
2022/03/28 00:18:46;;;;;;;9.33;7.70;;;;;;;;;;5065805;28;20195;-56
2022/03/28 00:21:12;;;;;;;10.13;8.17;;;;;;;;;;5069134;28;20168;-57
2022/03/28 00:23:39;;;;;;;10.53;8.20;;;;;;;;;;5069302;28;20195;-56
2022/03/28 00:26:05;;;;;;;12.07;9.20;;;;;;;;;;5086295;28;20176;-54
2022/03/28 00:28:31;;;;;;;8.57;7.67;;;;;;;;;;5068421;28;20666;-54
2022/03/28 00:30:57;;;;;;;10.00;8.03;;;;;;;;;;5081554;28;20176;-54
2022/03/28 00:33:23;;;;;;;10.20;8.67;;;;;;;;;;5076530;28;20715;-57
2022/03/28 00:35:50;;;;;;;10.33;8.33;;;;;;;;;;5066680;28;20504;-58
2022/03/28 00:38:16;;;;;;;9.77;8.77;;;;;;;;;;5085974;28;20207;-55
2022/03/28 00:40:42;;;;;;;11.23;8.43;;;;;;;;;;5069217;28;20270;-56
2022/03/28 00:43:09;;;;;;;10.60;8.37;;;;;;;;;;5070944;28;20194;-55
2022/03/28 00:45:37;;;;;;;10.57;8.63;;;;;;;;;;5070245;28;20187;-55
2022/03/28 00:48:04;;;;;;;10.80;8.37;;;;;;;;;;5082396;28;20179;-56
2022/03/28 00:50:32;;;;;;;11.40;9.17;;;;;;;;;;5071448;28;20167;-56
2022/03/28 00:52:58;;;;;;;9.60;8.07;;;;;;;;;;5083507;28;20203;-56
2022/03/28 00:55:24;;;;;;;9.97;8.90;;;;;;;;;;5049964;28;20546;-55
2022/03/28 00:57:51;;;;;;;9.37;8.40;;;;;;;;;;5082623;28;20253;-55
2022/03/28 01:00:17;;;;;;;8.90;7.97;;;;;;;;;;5087197;28;20742;-56
2022/03/28 01:02:44;;;;;;;10.13;8.73;;;;;;;;;;5084214;28;20182;-58
2022/03/28 01:05:11;;;;;;;10.27;8.77;;;;;;;;;;5067695;28;20241;-57
2022/03/28 01:07:41;;;;;;;10.30;8.30;;;;;;;;;;5069677;28;20188;-56
2022/03/28 01:10:11;;;;;;;10.23;8.37;;;;;;;;;;5086927;28;20677;-55
2022/03/28 01:12:38;;;;;;;11.23;8.63;;;;;;;;;;5070415;28;20180;-56
2022/03/28 01:15:05;;;;;;;10.30;8.67;;;;;;;;;;5058100;28;20223;-57
2022/03/28 01:20:16;;;;;;;10.60;8.30;;;;;;;;;;5067185;28;20180;-56
2022/03/28 01:22:42;;;;;;;12.47;9.17;;;;;;;;;;5048754;28;20234;-57
2022/03/28 01:25:09;;;;;;;9.70;7.90;;;;;;;;;;5068358;28;20169;-56
2022/03/28 01:27:36;;;;;;;10.00;8.60;;;;;;;;;;5050285;28;20257;-58
2022/03/28 01:30:04;;;;;;;9.10;8.20;;;;;;;;;;5063288;28;20275;-54
2022/03/28 01:32:31;;;;;;;12.83;9.13;;;;;;;;;;5047398;28;20599;-57
2022/03/28 01:34:57;;;;;;;11.40;9.30;;;;;;;;;;5047970;28;20176;-56
2022/03/28 01:37:23;;;;;;;11.60;8.33;;;;;;;;;;5064200;28;20283;-56
2022/03/28 01:39:50;;;;;;;11.20;9.30;;;;;;;;;;5022333;28;20204;-57
2022/03/28 01:42:16;;;;;;;11.83;8.93;;;;;;;;;;5069630;28;20683;-58
2022/03/28 01:44:42;;;;;;;10.57;8.53;;;;;;;;;;5051747;28;20180;-56
2022/03/28 01:47:08;;;;;;;11.23;9.33;;;;;;;;;;5071612;28;20168;-57
2022/03/28 01:49:34;;;;;;;9.80;8.80;;;;;;;;;;5067408;28;20187;-56
2022/03/28 01:52:01;;;;;;;9.87;8.70;;;;;;;;;;5053367;28;20196;-55
2022/03/28 01:54:27;;;;;;;12.90;9.87;;;;;;;;;;5057454;28;20456;-56
2022/03/28 01:56:53;;;;;;;9.50;8.30;;;;;;;;;;5063510;28;20449;-57
2022/03/28 01:59:20;;;;;;;13.33;9.57;;;;;;;;;;5049717;28;20200;-56
2022/03/28 02:01:46;;;;;;;11.53;9.33;;;;;;;;;;5069566;28;20176;-56
2022/03/28 02:04:13;;;;;;;12.13;8.87;;;;;;;;;;5051649;28;20164;-56
2022/03/28 02:06:39;;;;;;;12.03;8.93;;;;;;;;;;5067970;28;20181;-56
2022/03/28 02:09:05;;;;;;;10.60;9.37;;;;;;;;;;5064431;28;20176;-56
2022/03/28 02:11:32;;;;;;;13.37;9.47;;;;;;;;;;5068555;28;20696;-57
2022/03/28 02:13:58;;;;;;;12.80;10.57;;;;;;;;;;5039884;28;20216;-56
2022/03/28 02:16:25;;;;;;;11.13;9.07;;;;;;;;;;5066023;28;20217;-57
2022/03/28 02:18:51;;;;;;;11.70;9.90;;;;;;;;;;5049605;28;20276;-54
2022/03/28 02:21:17;;;;;;;11.73;9.73;;;;;;;;;;5048585;28;20180;-55
2022/03/28 02:23:44;;;;;;;10.03;8.93;;;;;;;;;;5037293;28;20181;-54
2022/03/28 02:26:10;;;;;;;11.00;9.60;;;;;;;;;;5039335;28;20644;-54
2022/03/28 02:28:36;;;;;;;11.47;9.90;;;;;;;;;;5048455;28;20220;-55
2022/03/28 02:31:03;;;;;;;11.03;9.87;;;;;;;;;;5040489;28;20629;-54
2022/03/28 02:33:29;;;;;;;13.80;9.27;;;;;;;;;;5048362;28;20637;-53
2022/03/28 02:35:55;;;;;;;9.67;8.67;;;;;;;;;;5061085;28;20654;-55
2022/03/28 02:38:21;;;;;;;10.53;8.60;;;;;;;;;;5043396;28;20224;-55
2022/03/28 02:40:47;;;;;;;10.47;9.10;;;;;;;;;;5051253;28;20226;-54
2022/03/28 02:43:14;;;;;;;11.07;8.90;;;;;;;;;;5068796;28;20209;-55
2022/03/28 02:45:40;;;;;;;11.77;9.37;;;;;;;;;;5068769;28;20180;-55
2022/03/28 02:48:07;;;;;;;10.40;8.83;;;;;;;;;;5042543;28;20181;-55
2022/03/28 02:50:34;;;;;;;11.07;9.20;;;;;;;;;;5040977;28;20192;-54
2022/03/28 02:53:01;;;;;;;12.20;9.60;;;;;;;;;;5038211;28;20209;-55
2022/03/28 02:55:27;;;;;;;9.67;8.60;;;;;;;;;;5031567;28;20243;-55
2022/03/28 02:57:54;;;;;;;11.93;10.52;;;;;;;;;;5047241;28;20433;-54
2022/03/28 03:00:21;;;;;;;12.20;9.97;;;;;;;;;;5032943;28;20209;-55
2022/03/28 03:02:47;;;;;;;11.23;8.90;;;;;;;;;;5042171;28;20165;-56
2022/03/28 03:05:13;;;;;;;11.87;8.90;;;;;;;;;;5051390;28;20177;-55
2022/03/28 03:07:40;;;;;;;10.50;8.87;;;;;;;;;;5059646;28;20269;-54
2022/03/28 03:10:07;;;;;;;10.97;9.37;;;;;;;;;;5056084;28;20584;-54
2022/03/28 03:12:33;;;;;;;12.43;9.03;;;;;;;;;;5049297;28;20185;-55
2022/03/28 03:14:59;;;;;;;12.10;8.87;;;;;;;;;;5078603;28;20220;-54
2022/03/28 03:17:25;;;;;;;10.97;8.43;;;;;;;;;;5087389;28;20171;-56
2022/03/28 03:19:52;;;;;;;12.70;10.10;;;;;;;;;;5088818;28;20203;-55
2022/03/28 03:22:18;;;;;;;10.87;8.57;;;;;;;;;;5069409;28;20179;-55
2022/03/28 03:24:46;;;;;;;11.23;9.43;;;;;;;;;;5085173;28;20695;-56
2022/03/28 03:27:13;;;;;;;11.13;9.37;;;;;;;;;;5088714;28;20716;-55
2022/03/28 03:29:39;;;;;;;9.97;8.73;;;;;;;;;;5069186;28;20229;-55
2022/03/28 03:32:06;;;;;;;11.67;10.47;;;;;;;;;;5068728;28;20195;-55
2022/03/28 03:34:32;;;;;;;11.67;8.87;;;;;;;;;;5085688;28;20183;-55
2022/03/28 03:36:58;;;;;;;10.50;8.33;;;;;;;;;;5051380;28;20548;-55
2022/03/28 03:39:25;;;;;;;10.97;9.37;;;;;;;;;;5088932;28;20196;-57
2022/03/28 03:41:52;;;;;;;10.70;9.10;;;;;;;;;;5086089;28;20207;-55
2022/03/28 03:44:19;;;;;;;11.27;8.87;;;;;;;;;;5088623;28;20596;-55
2022/03/28 03:46:45;;;;;;;9.60;8.23;;;;;;;;;;5087480;28;20543;-57
2022/03/28 03:49:12;;;;;;;11.50;9.50;;;;;;;;;;5052566;28;20572;-55
2022/03/28 03:51:39;;;;;;;11.33;8.73;;;;;;;;;;5085581;28;20891;-56
2022/03/28 03:54:05;;;;;;;10.57;8.20;;;;;;;;;;5073848;28;20199;-55
2022/03/28 03:56:31;;;;;;;12.53;9.67;;;;;;;;;;5084520;28;20211;-54
2022/03/28 03:58:58;;;;;;;12.00;8.67;;;;;;;;;;5087086;28;20257;-56
2022/03/28 04:01:26;;;;;;;10.10;9.00;;;;;;;;;;5086377;28;20175;-55
2022/03/28 04:03:52;;;;;;;10.83;8.90;;;;;;;;;;5070980;28;20957;-54
2022/03/28 04:06:18;;;;;;;10.90;9.20;;;;;;;;;;5068878;28;20666;-57
2022/03/28 04:08:45;;;;;;;12.57;10.63;;;;;;;;;;5069484;28;20405;-55
2022/03/28 04:11:11;;;;;;;11.30;9.40;;;;;;;;;;5068641;28;20176;-55
2022/03/28 04:13:38;;;;;;;10.77;8.70;;;;;;;;;;5072212;28;20589;-56
2022/03/28 04:16:04;;;;;;;9.30;8.37;;;;;;;;;;5068732;28;20215;-55
2022/03/28 04:18:30;;;;;;;13.33;9.97;;;;;;;;;;5044351;28;20572;-54
2022/03/28 04:20:57;;;;;;;11.90;9.00;;;;;;;;;;5052940;28;20184;-57
2022/03/28 04:23:24;;;;;;;10.87;9.47;;;;;;;;;;5045095;28;20678;-55
2022/03/28 04:25:50;;;;;;;11.53;8.53;;;;;;;;;;5068015;28;20686;-55
2022/03/28 04:28:16;;;;;;;10.03;8.27;;;;;;;;;;5066439;28;20199;-55
2022/03/28 04:30:42;;;;;;;13.50;9.00;;;;;;;;;;5062130;28;20209;-54
2022/03/28 04:33:09;;;;;;;11.27;9.77;;;;;;;;;;5052966;28;20279;-55
2022/03/28 04:35:41;;;;;;;11.73;8.97;;;;;;;;;;5048073;28;20184;-59
2022/03/28 04:38:09;;;;;;;10.33;8.57;;;;;;;;;;5057205;28;20189;-55
2022/03/28 04:40:36;;;;;;;11.60;8.50;;;;;;;;;;5046329;28;20187;-54
2022/03/28 04:43:02;;;;;;;10.67;8.83;;;;;;;;;;5039776;28;20647;-55
2022/03/28 04:45:30;;;;;;;11.80;9.10;;;;;;;;;;5032780;28;20577;-55
2022/03/28 04:47:56;;;;;;;12.17;9.63;;;;;;;;;;5057551;28;20172;-55
2022/03/28 04:50:23;;;;;;;11.27;8.53;;;;;;;;;;5057882;28;20224;-56
2022/03/28 04:52:49;;;;;;;11.90;8.77;;;;;;;;;;5040410;28;20173;-56
2022/03/28 04:55:15;;;;;;;12.97;10.53;;;;;;;;;;5046520;28;20168;-56
2022/03/28 04:57:41;;;;;;;10.20;8.80;;;;;;;;;;5048337;28;20197;-56
2022/03/28 05:00:09;;;;;;;10.83;9.30;;;;;;;;;;5050087;28;20189;-55
2022/03/28 05:02:35;;;;;;;12.47;9.00;;;;;;;;;;5032772;28;20659;-58
2022/03/28 05:05:03;;;;;;;10.93;8.97;;;;;;;;;;5032492;28;20632;-56
2022/03/28 05:07:30;;;;;;;9.80;8.10;;;;;;;;;;5048295;28;20271;-56
2022/03/28 05:09:57;;;;;;;10.43;8.43;;;;;;;;;;5059555;28;20180;-56
2022/03/28 05:12:24;;;;;;;10.90;8.77;;;;;;;;;;5051819;28;20181;-56
2022/03/28 05:14:51;;;;;;;12.37;8.83;;;;;;;;;;5057611;28;20310;-55
2022/03/28 05:17:21;;;;;;;11.73;8.33;;;;;;;;;;5069962;28;20179;-55
2022/03/28 05:19:48;;;;;;;11.20;8.07;;;;;;;;;;5064891;28;20569;-55
2022/03/28 05:22:14;;;;;;;11.67;8.77;;;;;;;;;;5077202;28;20262;-56
2022/03/28 05:24:40;;;;;;;12.27;9.07;;;;;;;;;;5071962;28;20211;-56
2022/03/28 05:27:07;;;;;;;10.83;8.63;;;;;;;;;;5072633;28;20176;-56
2022/03/28 05:29:33;;;;;;;9.90;8.53;;;;;;;;;;5073382;28;20180;-56
2022/03/28 05:31:59;;;;;;;10.67;8.53;;;;;;;;;;5087076;28;20175;-54
2022/03/28 05:34:26;;;;;;;11.53;8.97;;;;;;;;;;5072339;28;20187;-58
2022/03/28 05:36:52;;;;;;;12.70;9.63;;;;;;;;;;5073923;28;20179;-56
2022/03/28 05:39:18;;;;;;;12.83;8.20;;;;;;;;;;5091395;28;20591;-56
2022/03/28 05:41:45;;;;;;;12.27;8.27;;;;;;;;;;5089617;28;20184;-57
2022/03/28 05:44:11;;;;;;;10.40;8.27;;;;;;;;;;5087251;28;20176;-55
2022/03/28 05:46:37;;;;;;;13.50;8.90;;;;;;;;;;5091764;28;20506;-55
2022/03/28 05:49:05;;;;;;;19.73;10.30;;;;;;;;;;5072288;28;20191;-55
2022/03/28 05:51:31;;;;;;;20.80;10.20;;;;;;;;;;5073855;28;20175;-54
2022/03/28 05:53:57;;;;;;;24.43;10.23;;;;;;;;;;5091264;28;20666;-55
2022/03/28 05:56:23;;;;;;;21.00;10.27;;;;;;;;;;5091783;28;20203;-53
2022/03/28 05:58:49;;;;;;;21.77;10.73;;;;;;;;;;5078039;28;20249;-56
2022/03/28 06:01:15;;;;;;;14.83;10.10;;;;;;;;;;5089100;28;20179;-59
2022/03/28 06:03:42;;;;;;;19.60;11.07;;;;;;;;;;5090000;28;20578;-55
2022/03/28 06:06:08;;;;;;;20.60;10.00;;;;;;;;;;5073372;28;20172;-55
2022/03/28 06:08:35;;;;;;;21.23;10.80;;;;;;;;;;5091220;28;20187;-58
2022/03/28 06:11:03;;;;;;;20.87;10.60;;;;;;;;;;5091618;28;20176;-55
2022/03/28 06:13:30;;;;;;;19.27;9.47;;;;;;;;;;5090519;28;20662;-55
2022/03/28 06:15:56;;;;;;;19.47;9.47;;;;;;;;;;5073153;28;20274;-55
2022/03/28 06:18:23;;;;;;;22.30;10.87;;;;;;;;;;5071578;28;20671;-54
2022/03/28 06:20:49;;;;;;;20.47;10.40;;;;;;;;;;5091450;28;20172;-54
2022/03/28 06:23:16;;;;;;;21.20;9.80;;;;;;;;;;5082920;28;20549;-54
2022/03/28 06:25:42;;;;;;;17.17;10.30;;;;;;;;;;5053048;28;20259;-55
2022/03/28 06:28:09;;;;;;;20.87;10.07;;;;;;;;;;5077765;28;20317;-54
2022/03/28 06:30:36;;;;;;;18.10;9.37;;;;;;;;;;5089721;28;20520;-54
2022/03/28 06:33:02;;;;;;;18.13;9.20;;;;;;;;;;5081546;28;20190;-53
2022/03/28 06:35:28;;;;;;;18.80;9.97;;;;;;;;;;5072601;28;20240;-55
2022/03/28 06:37:54;;;;;;;17.63;10.47;;;;;;;;;;5072109;28;20729;-53
2022/03/28 06:40:21;;;;;;;14.70;9.70;;;;;;;;;;5090574;28;20183;-55
2022/03/28 06:42:48;;;;;;;13.47;8.93;;;;;;;;;;5089914;28;20263;-55
2022/03/28 06:45:15;;;;;;;12.87;8.73;;;;;;;;;;5080381;28;20650;-54
2022/03/28 06:47:41;;;;;;;15.43;9.13;;;;;;;;;;5087477;28;20184;-55
2022/03/28 06:50:08;;;;;;;13.90;8.57;;;;;;;;;;5090390;28;20261;-55
2022/03/28 06:52:35;;;;;;;11.73;9.00;;;;;;;;;;5069765;28;20683;-56
2022/03/28 06:55:01;;;;;;;13.53;9.77;;;;;;;;;;5052338;28;20512;-55
2022/03/28 06:57:27;;;;;;;12.40;9.03;;;;;;;;;;5084386;28;20749;-55
2022/03/28 06:59:53;;;;;;;13.97;9.93;;;;;;;;;;5087274;28;20220;-55
2022/03/28 07:02:20;;;;;;;14.90;9.50;;;;;;;;;;5087735;28;20171;-55
2022/03/28 07:04:46;;;;;;;15.33;9.03;;;;;;;;;;5088609;28;20554;-55
2022/03/28 07:07:13;;;;;;;15.80;10.07;;;;;;;;;;5090070;28;20251;-55
2022/03/28 07:09:39;;;;;;;13.90;9.13;;;;;;;;;;5071774;28;20180;-55
2022/03/28 07:12:05;;;;;;;11.83;9.30;;;;;;;;;;5089238;28;20184;-55
2022/03/28 07:14:32;;;;;;;14.30;10.13;;;;;;;;;;5089486;28;20220;-57
2022/03/28 07:17:00;;;;;;;14.33;9.13;;;;;;;;;;5089817;28;20182;-56
2022/03/28 07:19:26;;;;;;;14.03;9.70;;;;;;;;;;5072296;28;20662;-54
2022/03/28 07:21:52;;;;;;;12.87;9.23;;;;;;;;;;5072501;28;20179;-55
2022/03/28 07:24:20;;;;;;;14.00;10.10;;;;;;;;;;5088811;28;20195;-55
2022/03/28 07:26:48;;;;;;;13.87;9.40;;;;;;;;;;5071780;28;20176;-55
2022/03/28 07:29:17;;;;;;;12.47;8.90;;;;;;;;;;5069914;28;20184;-55
2022/03/28 07:31:44;;;;;;;13.13;9.00;;;;;;;;;;5071829;28;20628;-56
2022/03/28 07:36:54;;;;;;;11.67;8.77;;;;;;;;;;5072949;28;20213;-57
2022/03/28 07:39:21;;;;;;;14.60;9.77;;;;;;;;;;5089312;28;20311;-56
2022/03/28 07:41:48;;;;;;;15.20;10.13;;;;;;;;;;5071117;28;20748;-57
2022/03/28 07:44:14;;;;;;;13.83;9.57;;;;;;;;;;5089012;28;20535;-56
2022/03/28 07:46:41;;;;;;;11.10;9.13;;;;;;;;;;5071203;28;20211;-55
2022/03/28 07:49:07;;;;;;;13.83;9.63;;;;;;;;;;5050657;28;20307;-57
2022/03/28 07:51:34;;;;;;;12.53;9.60;;;;;;;;;;5087506;28;20176;-56
2022/03/28 07:54:01;;;;;;;15.60;9.37;;;;;;;;;;5070474;28;20184;-56
2022/03/28 07:56:28;;;;;;;12.90;9.23;;;;;;;;;;5071322;28;20762;-57
2022/03/28 07:58:54;;;;;;;14.43;10.00;;;;;;;;;;5068522;28;20538;-56
2022/03/28 08:01:20;;;;;;;18.50;10.80;;;;;;;;;;5089575;28;20211;-56
2022/03/28 08:03:46;;;;;;;17.20;10.63;;;;;;;;;;5088394;28;20183;-57
2022/03/28 08:06:13;;;;;;;13.80;11.00;;;;;;;;;;5089652;28;20222;-57
2022/03/28 08:08:39;;;;;;;15.60;12.47;;;;;;;;;;5070720;28;20269;-56
2022/03/28 08:11:07;;;;;;;16.87;12.93;;;;;;;;;;5065385;28;20236;-56
2022/03/28 08:13:34;;;;;;;18.03;13.97;;;;;;;;;;5073041;28;20182;-56
2022/03/28 08:16:01;;;;;;;17.73;13.40;;;;;;;;;;5091185;28;20619;-56
2022/03/28 08:18:27;;;;;;;16.03;12.93;;;;;;;;;;5077110;28;20214;-58
2022/03/28 08:20:53;;;;;;;17.03;12.50;;;;;;;;;;5071542;28;20268;-56
2022/03/28 08:23:20;;;;;;;21.80;14.43;;;;;;;;;;5075894;28;20225;-56
2022/03/28 08:25:47;;;;;;;20.87;14.57;;;;;;;;;;5070360;28;20183;-56
2022/03/28 08:28:13;;;;;;;20.57;15.53;;;;;;;;;;5070514;28;20180;-55
2022/03/28 08:30:39;;;;;;;18.67;15.27;;;;;;;;;;5089032;28;20168;-56
2022/03/28 08:33:06;;;;;;;19.73;15.67;;;;;;;;;;5087609;28;20867;-55
2022/03/28 08:35:32;;;;;;;19.87;14.83;;;;;;;;;;5069473;28;20535;-56
2022/03/28 08:37:58;;;;;;;17.83;14.77;;;;;;;;;;5065090;28;20187;-56
2022/03/28 08:40:26;;;;;;;18.10;12.57;;;;;;;;;;5089176;28;20172;-57
2022/03/28 08:42:53;;;;;;;19.50;14.43;;;;;;;;;;5087972;28;20638;-56
2022/03/28 08:45:19;;;;;;;19.13;14.37;;;;;;;;;;5089016;28;20172;-58
2022/03/28 08:47:47;;;;;;;17.53;12.70;;;;;;;;;;5068862;28;20225;-57
2022/03/28 08:50:13;;;;;;;16.53;11.90;;;;;;;;;;5088466;28;20241;-57
2022/03/28 08:52:41;;;;;;;17.47;13.63;;;;;;;;;;5085249;28;20175;-57
2022/03/28 08:55:07;;;;;;;18.63;13.70;;;;;;;;;;5071553;28;20187;-56
2022/03/28 08:57:37;;;;;;;21.43;14.33;;;;;;;;;;5063047;28;20799;-59
2022/03/28 09:00:05;;;;;;;16.33;13.57;;;;;;;;;;5079234;28;20732;-59
2022/03/28 09:02:42;;;;;;;18.20;12.73;;;;;;;;;;5053583;28;20195;-58
2022/03/28 09:05:15;;;;;;;25.70;14.77;;;;;;;;;;5054171;28;20252;-57
2022/03/28 09:07:41;;;;;;;19.60;15.13;;;;;;;;;;5053710;28;20679;-57
2022/03/28 09:10:17;;;;;;;22.13;15.07;;;;;;;;;;5076881;28;20184;-58
2022/03/28 09:12:59;;;;;;;17.13;13.77;;;;;;;;;;5072321;28;20179;-57
2022/03/28 09:15:26;;;;;;;19.33;13.87;;;;;;;;;;5064692;28;20276;-61
2022/03/28 09:17:56;;;;;;;20.20;15.00;;;;;;;;;;5086917;28;20226;-57
2022/03/28 09:20:23;;;;;;;21.77;14.63;;;;;;;;;;5083241;28;20625;-59
2022/03/28 09:22:51;;;;;;;16.13;12.40;;;;;;;;;;5069446;28;20194;-57
2022/03/28 09:25:18;;;;;;;16.00;13.00;;;;;;;;;;5072919;28;20181;-56
2022/03/28 09:27:49;;;;;;;19.10;14.43;;;;;;;;;;5086665;28;20184;-56
2022/03/28 09:30:19;;;;;;;21.87;16.50;;;;;;;;;;5060289;28;20183;-56
2022/03/28 09:32:47;;;;;;;22.00;15.80;;;;;;;;;;5071779;28;20188;-56
2022/03/28 09:35:20;;;;;;;22.07;14.93;;;;;;;;;;5088587;28;20179;-59
2022/03/28 09:37:56;;;;;;;20.63;14.73;;;;;;;;;;5079382;28;20748;-56
2022/03/28 09:40:45;;;;;;;18.63;14.93;;;;;;;;;;5068103;28;20654;-57
2022/03/28 09:43:22;;;;;;;19.50;14.90;;;;;;;;;;5069400;28;20199;-56
2022/03/28 09:45:50;;;;;;;18.97;14.63;;;;;;;;;;5070203;28;20256;-58
2022/03/28 09:48:19;;;;;;;20.63;14.90;;;;;;;;;;5065785;28;20275;-56
2022/03/28 09:50:46;;;;;;;20.97;15.83;;;;;;;;;;5067037;28;20184;-56
2022/03/28 09:53:17;;;;;;;21.77;16.03;;;;;;;;;;5057737;28;20431;-57
2022/03/28 09:55:48;;;;;;;23.00;17.03;;;;;;;;;;5066748;28;20233;-57
2022/03/28 09:58:33;;;;;;;23.90;16.47;;;;;;;;;;5067720;28;20257;-56
2022/03/28 10:00:59;;;;;;;21.57;16.13;;;;;;;;;;5081390;28;20168;-57
2022/03/28 10:03:26;;;;;;;20.23;16.30;;;;;;;;;;5084183;28;20225;-57
2022/03/28 10:05:54;;;;;;;21.27;16.33;;;;;;;;;;5090024;28;20582;-57
2022/03/28 10:08:20;;;;;;;23.20;17.53;;;;;;;;;;5064848;28;20658;-57
2022/03/28 10:10:50;;;;;;;25.97;18.43;;;;;;;;;;5059183;28;20270;-57
2022/03/28 10:13:20;;;;;;;21.63;16.17;;;;;;;;;;5090387;28;20179;-57
2022/03/28 10:15:47;;;;;;;22.87;17.40;;;;;;;;;;5071518;28;20277;-58
2022/03/28 10:18:14;;;;;;;21.23;17.10;;;;;;;;;;5090118;28;20199;-57
2022/03/28 10:20:42;;;;;;;20.97;16.20;;;;;;;;;;5072261;28;20184;-59
2022/03/28 10:23:09;;;;;;;26.70;17.77;;;;;;;;;;5055966;28;20676;-58
2022/03/28 10:25:35;;;;;;;24.00;18.63;;;;;;;;;;5089828;28;20210;-58
2022/03/28 10:28:01;;;;;;;24.40;18.70;;;;;;;;;;5091242;28;20184;-58
2022/03/28 10:30:30;;;;;;;22.93;18.73;;;;;;;;;;5077382;28;20626;-58
2022/03/28 10:33:08;;;;;;;24.37;19.23;;;;;;;;;;5057899;28;20233;-57
2022/03/28 10:35:34;;;;;;;22.77;18.97;;;;;;;;;;5091001;28;20191;-59
2022/03/28 10:38:17;;;;;;;27.73;19.13;;;;;;;;;;5072622;28;20223;-58
2022/03/28 10:41:10;;;;;;;21.90;18.03;;;;;;;;;;5073496;28;20215;-57
2022/03/28 10:43:36;;;;;;;26.00;18.60;;;;;;;;;;5061531;28;20457;-59
2022/03/28 10:46:03;;;;;;;25.13;18.90;;;;;;;;;;5055666;28;20669;-57
2022/03/28 10:48:37;;;;;;;26.47;19.50;;;;;;;;;;5079453;28;20176;-59
2022/03/28 10:51:29;;;;;;;22.60;18.57;;;;;;;;;;5089776;28;20177;-59
2022/03/28 10:54:05;;;;;;;28.73;22.63;;;;;;;;;;5071570;28;20552;-58
2022/03/28 10:56:35;;;;;;;27.93;20.90;;;;;;;;;;5053121;28;20217;-58
2022/03/28 10:59:06;;;;;;;28.53;21.83;;;;;;;;;;5084341;28;20661;-59
2022/03/28 11:01:35;;;;;;;27.73;21.20;;;;;;;;;;5073479;28;20525;-57
2022/03/28 11:04:02;;;;;;;26.13;20.60;;;;;;;;;;5083981;28;20511;-57
2022/03/28 11:06:41;;;;;;;25.53;20.27;;;;;;;;;;5092847;28;20181;-57
2022/03/28 11:09:08;;;;;;;27.93;20.57;;;;;;;;;;5074312;28;20183;-58
2022/03/28 11:11:34;;;;;;;26.23;22.33;;;;;;;;;;5067301;28;20683;-58
2022/03/28 11:14:00;;;;;;;30.60;21.37;;;;;;;;;;5089351;28;20631;-59
2022/03/28 11:16:45;;;;;;;29.07;21.27;;;;;;;;;;5071658;28;20245;-58
2022/03/28 11:19:21;;;;;;;28.20;20.30;;;;;;;;;;5066595;28;20215;-58
2022/03/28 11:22:08;;;;;;;25.27;20.27;;;;;;;;;;5072398;28;20306;-58
2022/03/28 11:24:58;;;;;;;27.17;21.27;;;;;;;;;;5089444;28;20168;-57
2022/03/28 11:27:31;;;;;;;27.60;21.33;;;;;;;;;;5089548;28;20681;-57
2022/03/28 11:30:12;;;;;;;25.10;21.47;;;;;;;;;;5072528;28;20267;-57
2022/03/28 11:32:38;;;;;;;33.43;21.87;;;;;;;;;;5103393;28;20195;-59
2022/03/28 11:35:05;;;;;;;27.20;20.70;;;;;;;;;;5089520;28;20179;-57
2022/03/28 11:37:32;;;;;;;25.77;20.23;;;;;;;;;;5090185;28;20183;-57
2022/03/28 11:40:00;;;;;;;29.13;20.67;;;;;;;;;;5071171;28;20201;-58
2022/03/28 11:42:27;;;;;;;23.80;18.90;;;;;;;;;;5072554;28;20207;-58
2022/03/28 11:44:54;;;;;;;26.53;20.20;;;;;;;;;;5090059;28;20716;-57
2022/03/28 11:47:21;;;;;;;26.47;21.40;;;;;;;;;;5072085;28;20204;-57
2022/03/28 11:49:58;;;;;;;33.53;22.57;;;;;;;;;;5087474;28;20661;-57
2022/03/28 11:52:26;;;;;;;27.77;21.90;;;;;;;;;;5070642;28;20207;-59
2022/03/28 11:54:53;;;;;;;27.03;21.97;;;;;;;;;;5071120;28;20210;-57
2022/03/28 12:00:12;;;;;;;25.87;20.50;;;;;;;;;;5089821;28;20213;-60
2022/03/28 12:02:48;;;;;;;26.07;20.50;;;;;;;;;;5089258;28;20179;-57
2022/03/28 12:05:24;;;;;;;27.37;20.30;;;;;;;;;;5095370;28;20261;-56
2022/03/28 12:07:50;;;;;;;25.57;20.50;;;;;;;;;;5088822;28;20404;-58
2022/03/28 12:10:16;;;;;;;28.87;20.73;;;;;;;;;;5070875;28;20190;-60
2022/03/28 12:12:44;;;;;;;25.47;19.60;;;;;;;;;;5088923;28;20179;-59
2022/03/28 12:15:11;;;;;;;28.53;20.73;;;;;;;;;;5070940;28;20223;-58
2022/03/28 12:17:37;;;;;;;27.07;19.23;;;;;;;;;;5070977;28;20679;-59
2022/03/28 12:20:05;;;;;;;24.77;19.97;;;;;;;;;;5070242;28;20196;-59
2022/03/28 12:22:45;;;;;;;30.23;21.23;;;;;;;;;;5088402;28;20230;-59
2022/03/28 12:25:22;;;;;;;25.40;20.23;;;;;;;;;;5088648;28;20187;-60
2022/03/28 12:27:53;;;;;;;24.53;20.33;;;;;;;;;;5070411;28;20213;-59
2022/03/28 12:30:19;;;;;;;29.33;20.37;;;;;;;;;;5072036;28;20198;-58
2022/03/28 12:32:46;;;;;;;26.27;20.03;;;;;;;;;;5068470;28;20183;-59
2022/03/28 12:35:12;;;;;;;25.63;19.93;;;;;;;;;;5070623;28;20171;-58
2022/03/28 12:37:38;;;;;;;25.03;19.47;;;;;;;;;;5088691;28;20187;-58
2022/03/28 12:40:05;;;;;;;26.03;19.50;;;;;;;;;;5070360;28;20620;-58
2022/03/28 12:42:33;;;;;;;27.73;20.13;;;;;;;;;;5070440;28;20625;-57
2022/03/28 12:45:00;;;;;;;26.43;19.53;;;;;;;;;;5070626;28;20586;-58
2022/03/28 12:47:29;;;;;;;26.53;20.47;;;;;;;;;;5070548;28;20217;-58
2022/03/28 12:49:57;;;;;;;27.53;19.27;;;;;;;;;;5087281;28;20176;-57
2022/03/28 12:52:24;;;;;;;28.43;20.67;;;;;;;;;;5070138;28;20237;-58
2022/03/28 12:54:57;;;;;;;25.67;19.57;;;;;;;;;;5088093;28;20180;-60
2022/03/28 12:57:27;;;;;;;24.83;18.57;;;;;;;;;;5088602;28;20199;-60
2022/03/28 12:59:54;;;;;;;27.47;19.53;;;;;;;;;;5069182;28;20203;-60
2022/03/28 13:02:21;;;;;;;30.10;20.27;;;;;;;;;;5070223;28;20373;-59
2022/03/28 13:04:51;;;;;;;25.07;18.37;;;;;;;;;;5079810;28;20183;-58
2022/03/28 13:07:23;;;;;;;27.13;20.13;;;;;;;;;;5088443;28;20186;-58
2022/03/28 13:10:08;;;;;;;25.50;19.37;;;;;;;;;;5080857;28;20202;-58
2022/03/28 13:12:38;;;;;;;24.27;18.77;;;;;;;;;;5088458;28;20164;-58
2022/03/28 13:15:13;;;;;;;25.57;19.10;;;;;;;;;;5088705;28;20724;-58
2022/03/28 13:17:43;;;;;;;24.30;20.07;;;;;;;;;;5068735;28;20240;-59
2022/03/28 13:20:16;;;;;;;28.33;18.77;;;;;;;;;;5088175;28;20245;-58
2022/03/28 13:22:45;;;;;;;25.53;19.13;;;;;;;;;;5053308;28;20176;-59
2022/03/28 13:25:17;;;;;;;28.00;20.20;;;;;;;;;;5082500;28;20184;-59
2022/03/28 13:28:08;;;;;;;27.83;19.13;;;;;;;;;;5066380;28;20631;-59
2022/03/28 13:30:42;;;;;;;25.87;19.07;;;;;;;;;;5088759;28;20166;-59
2022/03/28 13:33:11;;;;;;;24.90;18.70;;;;;;;;;;5084941;28;20168;-60
2022/03/28 13:35:38;;;;;;;26.00;19.27;;;;;;;;;;5086091;28;20176;-59
2022/03/28 13:38:05;;;;;;;24.67;19.33;;;;;;;;;;5084937;28;20179;-59
2022/03/28 13:40:32;;;;;;;27.37;19.70;;;;;;;;;;5085900;28;20179;-58
2022/03/28 13:42:59;;;;;;;23.07;19.50;;;;;;;;;;5066624;28;20357;-59
2022/03/28 13:45:26;;;;;;;24.50;18.57;;;;;;;;;;5062011;28;20257;-58
2022/03/28 13:47:54;;;;;;;27.03;19.67;;;;;;;;;;5068405;28;20685;-59
2022/03/28 13:50:21;;;;;;;29.20;19.53;;;;;;;;;;5086624;28;20653;-58
2022/03/28 13:52:47;;;;;;;25.23;19.63;;;;;;;;;;5076602;28;20167;-58
2022/03/28 13:55:13;;;;;;;29.60;19.80;;;;;;;;;;5089351;28;20603;-59
2022/03/28 13:57:40;;;;;;;24.53;20.23;;;;;;;;;;5105421;28;20202;-59
2022/03/28 14:00:07;;;;;;;25.33;19.77;;;;;;;;;;5093131;28;20568;-58
2022/03/28 14:02:34;;;;;;;26.10;19.80;;;;;;;;;;5066835;28;20229;-58
2022/03/28 14:05:04;;;;;;;25.87;19.80;;;;;;;;;;5059570;28;20176;-58
2022/03/28 14:07:30;;;;;;;26.33;19.50;;;;;;;;;;5088953;28;20178;-59
2022/03/28 14:09:57;;;;;;;28.10;19.10;;;;;;;;;;5072543;28;20532;-58
2022/03/28 14:12:25;;;;;;;25.70;19.73;;;;;;;;;;5067483;28;20221;-59
2022/03/28 14:14:55;;;;;;;24.47;18.33;;;;;;;;;;5076957;28;20210;-58
2022/03/28 14:17:21;;;;;;;26.23;17.90;;;;;;;;;;5056782;28;20199;-59
2022/03/28 14:19:48;;;;;;;23.87;18.67;;;;;;;;;;5083147;28;20180;-59
2022/03/28 14:22:14;;;;;;;26.07;18.97;;;;;;;;;;5081143;28;20177;-59
2022/03/28 14:24:40;;;;;;;24.77;18.13;;;;;;;;;;5090934;28;20236;-58
2022/03/28 14:27:07;;;;;;;24.73;19.00;;;;;;;;;;5090554;28;20587;-57
2022/03/28 14:29:34;;;;;;;33.53;19.47;;;;;;;;;;5070194;28;20183;-59
2022/03/28 14:32:00;;;;;;;30.90;19.33;;;;;;;;;;5089029;28;20195;-58
2022/03/28 14:34:26;;;;;;;36.50;20.40;;;;;;;;;;5083798;28;21526;-59
2022/03/28 14:36:52;;;;;;;25.20;19.47;;;;;;;;;;5084033;28;20671;-59